createdAt,value
2018-06-22T00:01:43.871Z,16.30
2018-06-22T00:04:12.124Z,16.20
2018-06-22T00:06:40.339Z,16.20
2018-06-22T00:11:37.776Z,16.00
2018-06-22T00:14:06.129Z,16.10
2018-06-22T00:16:34.412Z,16.00
2018-06-22T00:19:02.592Z,16.00
2018-06-22T00:21:30.792Z,15.90
2018-06-22T00:23:58.976Z,15.90
2018-06-22T00:26:27.182Z,15.80
2018-06-22T00:28:55.400Z,15.80
2018-06-22T00:31:23.683Z,15.80
2018-06-22T00:33:51.935Z,15.70
2018-06-22T00:36:20.147Z,15.60
2018-06-22T00:38:48.327Z,15.50
2018-06-22T00:41:16.533Z,15.50
2018-06-22T00:43:44.747Z,15.50
2018-06-22T00:46:12.916Z,15.40
2018-06-22T00:48:41.119Z,15.40
2018-06-22T00:51:09.382Z,15.30
2018-06-22T00:53:48.745Z,15.20
2018-06-22T00:56:16.966Z,15.20
2018-06-22T00:58:45.171Z,15.10
2018-06-22T01:01:14.156Z,15.10
2018-06-22T01:06:10.371Z,15.10
2018-06-22T01:08:38.567Z,15.00
2018-06-22T01:11:06.965Z,14.90
2018-06-22T01:13:35.131Z,14.80
2018-06-22T01:16:03.347Z,14.90
2018-06-22T01:18:31.546Z,14.90
2018-06-22T01:20:59.726Z,14.80
2018-06-22T01:23:27.971Z,14.80
2018-06-22T01:25:56.160Z,14.70
2018-06-22T01:28:24.427Z,14.80
2018-06-22T01:30:52.621Z,14.80
2018-06-22T01:33:20.820Z,14.70
2018-06-22T01:35:49.007Z,14.70
2018-06-22T01:38:17.215Z,14.70
2018-06-22T01:40:45.403Z,14.70
2018-06-22T01:43:13.636Z,14.60
2018-06-22T01:45:41.908Z,14.50
2018-06-22T01:48:10.139Z,14.40
2018-06-22T01:50:38.340Z,14.40
2018-06-22T01:53:06.519Z,14.40
2018-06-22T01:55:34.700Z,14.40
2018-06-22T01:58:02.871Z,14.40
2018-06-22T02:00:31.099Z,14.30
2018-06-22T02:05:27.348Z,14.30
2018-06-22T02:10:23.547Z,14.20
2018-06-22T02:12:51.815Z,14.10
2018-06-22T02:15:20.024Z,14.20
2018-06-22T02:17:48.254Z,14.20
2018-06-22T02:22:44.395Z,14.10
2018-06-22T02:25:12.579Z,14.20
2018-06-22T02:30:08.756Z,14.20
2018-06-22T02:32:36.971Z,14.10
2018-06-22T02:35:05.210Z,14.00
2018-06-22T02:37:33.399Z,14.00
2018-06-22T02:40:01.599Z,14.00
2018-06-22T02:42:29.796Z,13.80
2018-06-22T02:44:57.999Z,13.90
2018-06-22T02:49:54.180Z,13.80
2018-06-22T02:52:22.383Z,13.80
2018-06-22T02:54:50.591Z,13.70
2018-06-22T02:57:18.789Z,13.80
2018-06-22T02:59:46.992Z,13.80
2018-06-22T03:02:15.216Z,13.60
2018-06-22T03:04:43.570Z,13.60
2018-06-22T03:07:11.765Z,13.70
2018-06-22T03:09:39.976Z,13.60
2018-06-22T03:12:08.310Z,13.60
2018-06-22T03:14:36.688Z,13.60
2018-06-22T03:17:04.907Z,13.60
2018-06-22T03:19:33.104Z,13.60
2018-06-22T03:24:29.299Z,13.30
2018-06-22T03:26:57.484Z,13.20
2018-06-22T03:29:25.670Z,13.30
2018-06-22T03:31:53.952Z,13.30
2018-06-22T03:34:22.144Z,13.20
2018-06-22T03:36:50.336Z,13.20
2018-06-22T03:39:18.606Z,13.20
2018-06-22T03:41:46.799Z,13.10
2018-06-22T03:44:15.035Z,13.10
2018-06-22T03:46:43.359Z,13.00
2018-06-22T03:49:11.555Z,13.00
2018-06-22T03:51:39.744Z,13.00
2018-06-22T03:56:35.910Z,13.00
2018-06-22T03:59:04.123Z,13.00
2018-06-22T04:01:32.351Z,13.00
2018-06-22T04:04:00.551Z,12.90
2018-06-22T04:08:57.182Z,12.90
2018-06-22T04:11:25.411Z,12.90
2018-06-22T04:13:53.717Z,13.00
2018-06-22T04:18:49.055Z,13.00
2018-06-22T04:21:17.267Z,12.90
2018-06-22T04:23:45.509Z,12.90
2018-06-22T04:26:13.693Z,12.80
2018-06-22T04:28:41.896Z,12.90
2018-06-22T04:31:10.077Z,12.90
2018-06-22T04:33:38.293Z,12.80
2018-06-22T04:36:06.489Z,12.90
2018-06-22T04:38:34.706Z,13.00
2018-06-22T04:41:03.054Z,13.00
2018-06-22T04:43:31.268Z,13.10
2018-06-22T04:45:59.539Z,13.10
2018-06-22T04:48:27.744Z,13.10
2018-06-22T04:53:23.951Z,13.20
2018-06-22T04:55:52.165Z,13.20
2018-06-22T04:58:20.387Z,13.20
2018-06-22T05:03:16.666Z,13.50
2018-06-22T05:05:44.852Z,13.60
2018-06-22T05:08:13.308Z,13.70
2018-06-22T05:13:09.431Z,13.80
2018-06-22T05:15:37.672Z,13.90
2018-06-22T05:18:05.910Z,13.90
2018-06-22T05:20:34.148Z,14.00
2018-06-22T05:23:02.363Z,14.00
2018-06-22T05:27:58.515Z,14.30
2018-06-22T05:32:54.660Z,14.40
2018-06-22T05:35:22.852Z,14.50
2018-06-22T05:42:47.017Z,14.90
2018-06-22T05:45:15.242Z,14.90
2018-06-22T05:47:43.472Z,15.00
2018-06-22T05:50:11.691Z,15.10
2018-06-22T05:52:39.909Z,15.20
2018-06-22T05:55:08.234Z,15.40
2018-06-22T05:57:36.547Z,15.50
2018-06-22T06:00:04.930Z,15.50
2018-06-22T06:02:33.131Z,15.60
2018-06-22T06:07:29.295Z,15.80
2018-06-22T06:09:57.627Z,15.80
2018-06-22T06:12:25.826Z,15.90
2018-06-22T06:14:54.015Z,15.90
2018-06-22T06:19:50.724Z,16.20
2018-06-22T06:22:18.920Z,16.30
2018-06-22T06:24:47.137Z,16.50
2018-06-22T06:27:15.373Z,16.60
2018-06-22T06:29:43.619Z,16.70
2018-06-22T06:32:11.861Z,17.00
2018-06-22T06:34:40.177Z,17.20
2018-06-22T06:37:08.396Z,17.60
2018-06-22T06:39:37.000Z,17.80
2018-06-22T06:42:08.399Z,18.20
2018-06-22T06:44:36.698Z,18.50
2018-06-22T06:47:04.900Z,18.90
2018-06-22T06:49:33.464Z,19.40
2018-06-22T06:54:30.087Z,20.30
2018-06-22T06:56:58.316Z,20.60
2018-06-22T06:59:26.592Z,21.00
2018-06-22T07:01:54.844Z,21.50
2018-06-22T07:04:23.036Z,21.80
2018-06-22T07:09:19.326Z,22.40
2018-06-22T07:11:47.723Z,22.50
2018-06-22T07:14:16.006Z,23.20
2018-06-22T07:16:44.232Z,23.30
2018-06-22T07:19:12.435Z,23.50
2018-06-22T07:21:40.798Z,23.50
2018-06-22T07:26:36.984Z,24.10
2018-06-22T07:29:05.186Z,23.50
2018-06-22T07:31:33.477Z,23.60
2018-06-22T07:34:02.163Z,23.80
2018-06-22T07:36:30.360Z,22.60
2018-06-22T07:38:58.868Z,22.40
2018-06-22T07:41:27.155Z,22.40
2018-06-22T07:43:55.481Z,23.50
2018-06-22T07:46:23.619Z,24.10
2018-06-22T07:48:51.899Z,24.60
2018-06-22T07:51:20.103Z,24.00
2018-06-22T07:53:49.065Z,23.10
2018-06-22T07:58:45.262Z,23.10
2018-06-22T08:01:13.711Z,22.90
2018-06-22T08:03:41.932Z,23.30
2018-06-22T08:06:10.169Z,23.90
2018-06-22T08:08:38.330Z,25.00
2018-06-22T08:11:06.546Z,25.70
2018-06-22T08:13:34.835Z,26.00
2018-06-22T08:16:03.071Z,25.30
2018-06-22T08:18:31.260Z,24.10
2018-06-22T08:20:59.467Z,23.70
2018-06-22T08:23:27.687Z,25.00
2018-06-22T08:25:55.851Z,25.60
2018-06-22T08:28:24.068Z,26.80
2018-06-22T08:33:20.279Z,27.50
2018-06-22T08:35:48.481Z,27.50
2018-06-22T08:38:16.679Z,27.50
2018-06-22T08:43:12.835Z,28.10
2018-06-22T08:48:09.148Z,28.10
2018-06-22T08:50:37.343Z,29.00
2018-06-22T08:53:05.531Z,29.70
2018-06-22T08:55:33.752Z,29.30
2018-06-22T09:00:30.156Z,24.90
2018-06-22T09:02:58.356Z,24.20
2018-06-22T09:05:26.585Z,24.30
2018-06-22T09:07:54.845Z,25.50
2018-06-22T09:10:23.048Z,25.20
2018-06-22T09:12:51.583Z,23.40
2018-06-22T09:15:19.937Z,23.30
2018-06-22T09:17:49.782Z,24.30
2018-06-22T09:20:18.004Z,24.60
2018-06-22T09:22:46.171Z,23.60
2018-06-22T09:25:14.392Z,23.10
2018-06-22T09:27:42.599Z,22.70
2018-06-22T09:30:10.888Z,22.70
2018-06-22T09:37:47.040Z,22.20
2018-06-22T09:40:15.260Z,23.90
2018-06-22T09:42:43.627Z,23.90
2018-06-22T09:47:39.747Z,24.30
2018-06-22T09:50:08.038Z,24.20
2018-06-22T09:52:36.226Z,24.90
2018-06-22T09:55:04.514Z,25.70
2018-06-22T09:57:32.671Z,25.90
2018-06-22T10:00:00.897Z,26.90
2018-06-22T10:02:29.133Z,27.50
2018-06-22T10:04:57.388Z,26.10
2018-06-22T10:09:53.707Z,24.60
2018-06-22T10:12:21.930Z,23.90
2018-06-22T10:17:18.562Z,22.70
2018-06-22T10:19:46.755Z,22.20
2018-06-22T10:32:06.847Z,20.00
2018-06-22T10:34:35.029Z,19.80
2018-06-22T10:37:03.290Z,19.50
2018-06-22T10:39:31.507Z,19.20
2018-06-22T10:41:59.707Z,19.10
2018-06-22T10:44:27.923Z,18.90
2018-06-22T10:46:56.139Z,18.80
2018-06-22T10:49:24.352Z,18.50
2018-06-22T10:51:52.668Z,18.20
2018-06-22T10:56:48.935Z,17.60
2018-06-22T10:59:17.171Z,17.40
2018-06-22T11:01:45.362Z,17.30
2018-06-22T11:04:13.558Z,17.30
2018-06-22T11:06:41.775Z,17.10
2018-06-22T11:09:11.480Z,16.90
2018-06-22T11:11:39.816Z,16.70
2018-06-22T11:14:08.156Z,16.70
2018-06-22T11:16:36.655Z,16.60
2018-06-22T11:19:05.299Z,16.60
2018-06-22T11:24:01.948Z,16.20
2018-06-22T11:26:30.151Z,16.00
2018-06-22T11:31:26.376Z,15.90
2018-06-22T11:33:54.586Z,15.80
2018-06-22T11:36:22.885Z,15.70
2018-06-22T11:38:51.126Z,15.80
2018-06-22T11:41:19.397Z,15.80
2018-06-22T11:43:47.590Z,15.90
2018-06-22T11:46:15.827Z,15.90
2018-06-22T11:48:44.055Z,15.90
2018-06-22T11:53:40.264Z,16.10
2018-06-22T11:56:08.462Z,16.00
2018-06-22T11:58:36.672Z,16.20
2018-06-22T12:01:04.894Z,17.80
2018-06-22T12:03:33.089Z,19.90
2018-06-22T12:06:01.279Z,21.30
2018-06-22T12:08:29.510Z,23.40
2018-06-22T12:10:57.696Z,24.90
2018-06-22T12:13:25.902Z,26.20
2018-06-22T12:15:54.111Z,26.40
2018-06-22T12:18:22.323Z,27.50
2018-06-22T12:20:50.803Z,25.90
2018-06-22T12:25:47.003Z,23.30
2018-06-22T12:28:15.200Z,21.90
2018-06-22T12:30:43.390Z,20.80
2018-06-22T12:33:11.662Z,19.80
2018-06-22T12:35:39.804Z,19.00
2018-06-22T12:38:08.001Z,18.70
2018-06-22T12:40:36.206Z,18.40
2018-06-22T12:43:04.441Z,18.20
2018-06-22T12:45:32.636Z,20.40
2018-06-22T12:48:00.824Z,23.70
2018-06-22T12:50:29.057Z,25.70
2018-06-22T12:55:25.288Z,26.40
2018-06-22T12:57:53.517Z,26.10
2018-06-22T13:00:21.750Z,25.60
2018-06-22T13:02:49.935Z,24.90
2018-06-22T13:05:18.152Z,24.10
2018-06-22T13:07:46.419Z,23.90
2018-06-22T13:10:14.639Z,23.60
2018-06-22T13:12:42.846Z,22.60
2018-06-22T13:15:11.034Z,21.80
2018-06-22T13:17:39.330Z,21.00
2018-06-22T13:25:03.808Z,19.60
2018-06-22T13:27:32.112Z,19.30
2018-06-22T13:30:00.329Z,19.00
2018-06-22T13:34:56.506Z,19.10
2018-06-22T13:37:24.707Z,18.90
2018-06-22T13:39:52.891Z,18.80
2018-06-22T13:42:21.110Z,18.50
2018-06-22T13:49:45.249Z,18.70
2018-06-22T13:54:41.461Z,18.90
2018-06-22T13:57:09.886Z,18.80
2018-06-22T13:59:38.008Z,18.40
2018-06-22T14:02:06.296Z,18.00
2018-06-22T14:04:39.839Z,17.70
2018-06-22T14:12:04.116Z,18.10
2018-06-22T14:14:32.303Z,18.30
2018-06-22T14:17:00.530Z,18.50
2018-06-22T14:21:56.732Z,18.50
2018-06-22T14:24:25.099Z,18.40
2018-06-22T14:26:53.387Z,18.00
2018-06-22T14:29:21.606Z,17.50
2018-06-22T14:31:49.850Z,17.60
2018-06-22T14:34:18.102Z,17.60
2018-06-22T14:36:46.374Z,17.60
2018-06-22T14:41:42.607Z,17.80
2018-06-22T14:44:13.864Z,17.70
2018-06-22T14:46:43.825Z,17.80
2018-06-22T14:49:18.083Z,18.00
2018-06-22T14:54:27.923Z,18.00
2018-06-22T14:57:03.003Z,17.90
2018-06-22T14:59:37.256Z,18.00
2018-06-22T15:02:12.465Z,18.00
2018-06-22T15:04:46.789Z,18.10
2018-06-22T15:07:21.180Z,18.20
2018-06-22T15:09:49.475Z,18.20
2018-06-22T15:12:17.707Z,18.10
2018-06-22T15:14:45.920Z,18.10
2018-06-22T15:17:14.339Z,18.00
2018-06-22T15:22:12.870Z,17.90
2018-06-22T15:24:41.442Z,17.30
2018-06-22T15:29:38.820Z,16.50
2018-06-22T15:32:06.979Z,16.30
2018-06-22T15:34:40.730Z,16.30
2018-06-22T15:37:14.443Z,16.30
2018-06-22T15:39:48.363Z,16.30
2018-06-22T15:42:22.046Z,16.30
2018-06-22T15:44:55.669Z,16.30
2018-06-22T15:47:29.255Z,16.30
2018-06-22T15:50:02.985Z,16.30
2018-06-22T15:52:36.652Z,16.20
2018-06-22T15:55:08.393Z,15.90
2018-06-22T15:57:36.647Z,15.50
2018-06-22T16:00:07.203Z,15.10
2018-06-22T16:02:40.720Z,14.90
2018-06-22T16:05:08.939Z,14.80
2018-06-22T16:07:37.155Z,14.70
2018-06-22T16:10:05.449Z,14.60
2018-06-22T16:12:38.044Z,14.50
2018-06-22T16:15:13.843Z,14.40
2018-06-22T16:17:47.424Z,14.60
2018-06-22T16:20:20.893Z,15.00
2018-06-22T16:22:54.546Z,15.20
2018-06-22T16:27:59.879Z,15.70
2018-06-22T16:30:28.466Z,15.70
2018-06-22T16:32:56.655Z,15.80
2018-06-22T16:35:25.089Z,15.80
2018-06-22T16:40:21.453Z,15.60
2018-06-22T16:45:18.040Z,15.40
2018-06-22T16:47:46.223Z,15.40
2018-06-22T16:50:14.493Z,15.30
2018-06-22T16:52:43.069Z,15.20
2018-06-22T16:57:40.186Z,15.30
2018-06-22T17:00:09.251Z,15.40
2018-06-22T17:05:05.755Z,15.50
2018-06-22T17:07:39.154Z,15.50
2018-06-22T17:10:12.834Z,15.70
2018-06-22T17:12:46.467Z,15.70
2018-06-22T17:15:19.896Z,15.70
2018-06-22T17:17:53.626Z,15.70
2018-06-22T17:20:21.824Z,15.60
2018-06-22T17:22:50.047Z,15.60
2018-06-22T17:25:18.239Z,15.50
2018-06-22T17:30:15.312Z,15.30
2018-06-22T17:35:11.752Z,15.20
2018-06-22T17:37:40.005Z,15.20
2018-06-22T17:40:08.243Z,15.30
2018-06-22T17:42:36.427Z,15.30
2018-06-22T17:45:04.701Z,15.30
2018-06-22T17:50:07.731Z,15.30
2018-06-22T17:52:35.923Z,15.30
2018-06-22T17:55:04.203Z,15.30
2018-06-22T17:57:32.411Z,15.30
2018-06-22T18:00:06.231Z,15.30
2018-06-22T18:02:39.901Z,15.40
2018-06-22T18:05:13.494Z,15.40
2018-06-22T18:07:42.158Z,15.30
2018-06-22T18:10:15.911Z,14.90
2018-06-22T18:12:50.430Z,14.60
2018-06-22T18:15:19.447Z,14.40
2018-06-22T18:17:47.728Z,14.20
2018-06-22T18:20:16.277Z,14.10
2018-06-22T18:22:44.463Z,14.00
2018-06-22T18:32:39.363Z,14.00
2018-06-22T18:35:09.142Z,14.00
2018-06-22T18:37:37.356Z,14.00
2018-06-22T18:40:06.034Z,14.00
2018-06-22T18:42:34.541Z,14.10
2018-06-22T18:45:02.834Z,14.20
2018-06-22T18:47:32.283Z,14.10
2018-06-22T18:50:01.858Z,14.20
2018-06-22T18:52:35.393Z,14.30
2018-06-22T18:55:09.143Z,14.30
2018-06-22T18:57:43.207Z,14.20
2018-06-22T19:00:17.112Z,14.00
2018-06-22T19:02:50.776Z,13.90
2018-06-22T19:05:19.085Z,13.90
2018-06-22T19:07:47.315Z,14.00
2018-06-22T19:10:15.511Z,14.00
2018-06-22T19:12:43.812Z,14.00
2018-06-22T19:15:12.006Z,14.10
2018-06-22T19:20:09.557Z,14.10
2018-06-22T19:22:38.853Z,14.10
2018-06-22T19:25:07.647Z,14.00
2018-06-22T19:27:36.718Z,13.90
2018-06-22T19:30:05.731Z,13.90
2018-06-22T19:32:35.221Z,13.90
2018-06-22T19:35:08.868Z,13.80
2018-06-22T19:37:37.187Z,13.90
2018-06-22T19:40:06.005Z,13.80
2018-06-22T19:42:34.342Z,13.70
2018-06-22T19:50:17.079Z,13.60
2018-06-22T19:52:51.392Z,13.70
2018-06-22T19:55:20.552Z,13.70
2018-06-22T19:57:49.729Z,13.70
2018-06-22T20:00:18.870Z,13.70
2018-06-22T20:02:47.290Z,13.60
2018-06-22T20:05:15.762Z,13.50
2018-06-22T20:07:44.080Z,13.50
2018-06-22T20:10:12.347Z,13.40
2018-06-22T20:12:40.642Z,13.30
2018-06-22T20:17:37.332Z,13.30
2018-06-22T20:20:06.812Z,13.30
2018-06-22T20:27:37.322Z,13.20
2018-06-22T20:30:06.527Z,13.10
2018-06-22T20:32:35.654Z,13.10
2018-06-22T20:37:42.843Z,13.20
2018-06-22T20:40:16.527Z,13.20
2018-06-22T20:42:48.088Z,13.20
2018-06-22T20:45:21.655Z,13.20
2018-06-22T20:47:55.406Z,13.20
2018-06-22T20:50:29.115Z,13.20
2018-06-22T20:52:57.403Z,13.20
2018-06-22T20:55:26.555Z,13.20
2018-06-22T20:57:54.798Z,13.20
2018-06-22T21:00:23.019Z,13.20
2018-06-22T21:02:51.203Z,13.20
2018-06-22T21:07:47.419Z,13.40
2018-06-22T21:10:15.632Z,13.40
2018-06-22T21:15:11.836Z,13.40
2018-06-22T21:17:40.061Z,13.40
2018-06-22T21:22:36.783Z,13.60
2018-06-22T21:25:05.572Z,13.70
2018-06-22T21:27:39.157Z,13.70
2018-06-22T21:30:12.773Z,13.60
2018-06-22T21:32:46.610Z,13.60
2018-06-22T21:35:20.271Z,13.60
2018-06-22T21:37:53.971Z,13.50
2018-06-22T21:40:22.168Z,13.40
2018-06-22T21:42:50.365Z,13.40
2018-06-22T21:45:18.594Z,13.30
2018-06-22T21:47:46.791Z,13.20
2018-06-22T21:50:15.016Z,13.20
2018-06-22T21:52:43.215Z,13.20
2018-06-22T21:55:11.419Z,13.20
2018-06-22T21:57:39.638Z,13.20
2018-06-22T22:00:09.399Z,13.10
2018-06-22T22:02:37.704Z,13.00
2018-06-22T22:05:05.955Z,13.00
2018-06-22T22:10:02.199Z,13.00
2018-06-22T22:12:30.375Z,12.90
2018-06-22T22:14:58.644Z,12.90
2018-06-22T22:17:26.872Z,12.80
2018-06-22T22:22:25.698Z,12.80
2018-06-22T22:24:53.894Z,12.80
2018-06-22T22:27:22.172Z,12.70
2018-06-22T22:29:50.401Z,12.70
2018-06-22T22:37:14.713Z,12.80
2018-06-22T22:39:42.907Z,12.80
2018-06-22T22:42:11.112Z,12.80
2018-06-22T22:49:35.338Z,12.90
2018-06-22T22:52:03.715Z,12.90
2018-06-22T22:54:32.488Z,12.90
2018-06-22T22:57:00.696Z,12.90
2018-06-22T22:59:28.926Z,12.90
2018-06-22T23:01:57.316Z,12.90
2018-06-22T23:04:25.865Z,13.00
2018-06-22T23:06:54.107Z,12.90
2018-06-22T23:09:22.455Z,12.90
2018-06-22T23:11:50.792Z,12.90
2018-06-22T23:19:16.056Z,12.90
2018-06-22T23:21:44.326Z,13.00
2018-06-22T23:24:12.543Z,13.00
2018-06-22T23:26:40.751Z,13.10
2018-06-22T23:29:09.032Z,13.00
2018-06-22T23:31:37.285Z,12.90
2018-06-22T23:34:05.916Z,13.00
2018-06-22T23:36:35.092Z,13.00
2018-06-22T23:39:03.524Z,13.00
2018-06-22T23:41:32.310Z,12.90
2018-06-22T23:46:28.583Z,13.00
2018-06-22T23:48:57.307Z,13.00
2018-06-22T23:51:25.557Z,12.90
2018-06-22T23:53:54.044Z,12.80
2018-06-22T23:56:22.419Z,12.90
2018-06-22T23:58:51.067Z,13.00
